Time;durP1;ratioP1;P1;durP2;ratioP2;P2;SDS_P1;SDS_P2;PMS_P1;PMS_P2;Temp;Humidity;BMP_temperature;BMP_pressure;BME280_temperature;BME280_humidity;BME280_pressure;Samples;Min_cycle;Max_cycle;Signal;HPM_P1;HPM_P2
2021/05/17 00:02:07;;;;;;;;;;;11.80;99.90;;;;;;5076427;28;19907;-80
2021/05/17 00:04:36;;;;;;;;;;;11.80;99.90;;;;;;5076576;28;19912;-79
2021/05/17 00:07:04;;;;;;;;;;;11.80;99.90;;;;;;5094568;28;20263;-79
2021/05/17 00:09:29;;;;;;;;;;;11.70;99.90;;;;;;5094318;28;19908;-79
2021/05/17 00:11:55;;;;;;;;;;;11.60;99.90;;;;;;5076351;28;19998;-79
2021/05/17 00:14:21;;;;;;;;;;;11.50;99.90;;;;;;5094314;28;19975;-79
2021/05/17 00:16:47;;;;;;;;;;;11.50;99.90;;;;;;5076297;28;20278;-79
2021/05/17 00:19:13;;;;;;;;;;;11.50;99.90;;;;;;5075863;28;19914;-80
2021/05/17 00:21:39;;;;;;;;;;;11.40;99.90;;;;;;5076036;28;19915;-79
2021/05/17 00:24:05;;;;;;;;;;;11.50;99.90;;;;;;5076172;28;19915;-79
2021/05/17 00:26:30;;;;;;;;;;;11.50;99.90;;;;;;5076093;28;20283;-79
2021/05/17 00:28:56;;;;;;;;;;;11.50;99.90;;;;;;5075742;28;19940;-79
2021/05/17 00:31:22;;;;;;;;;;;11.50;99.90;;;;;;5094090;28;20391;-79
2021/05/17 00:33:47;;;;;;;;;;;11.40;99.90;;;;;;5075941;28;19939;-79
2021/05/17 00:36:13;;;;;;;;;;;11.50;99.90;;;;;;5075683;28;19998;-79
2021/05/17 00:38:39;;;;;;;;;;;11.50;99.90;;;;;;5075631;28;20324;-79
2021/05/17 00:41:04;;;;;;;;;;;11.50;99.90;;;;;;5075575;28;19908;-79
2021/05/17 00:43:37;;;;;;;;;;;11.40;99.90;;;;;;5093234;28;19912;-79
2021/05/17 00:46:08;;;;;;;;;;;11.50;99.90;;;;;;5075543;28;19950;-79
2021/05/17 00:48:34;;;;;;;;;;;11.50;99.90;;;;;;5093473;28;20378;-79
2021/05/17 00:51:01;;;;;;;;;;;11.50;99.90;;;;;;5075489;28;19943;-79
2021/05/17 00:53:26;;;;;;;;;;;11.60;99.90;;;;;;5075485;28;19904;-79
2021/05/17 00:55:52;;;;;;;;;;;11.60;99.90;;;;;;5075398;28;19911;-79
2021/05/17 00:58:17;;;;;;;;;;;11.60;99.90;;;;;;5075302;28;20362;-79
2021/05/17 01:00:44;;;;;;;;;;;11.60;99.90;;;;;;5075262;28;20071;-79
2021/05/17 01:03:09;;;;;;;;;;;11.60;99.90;;;;;;5075280;28;19908;-79
2021/05/17 01:05:35;;;;;;;;;;;11.40;99.90;;;;;;5075966;28;19908;-79
2021/05/17 01:08:02;;;;;;;;;;;11.40;99.90;;;;;;5075471;28;19911;-79
2021/05/17 01:10:29;;;;;;;;;;;11.40;99.90;;;;;;5075024;28;19995;-80
2021/05/17 01:12:54;;;;;;;;;;;11.40;99.90;;;;;;5075263;28;19912;-79
2021/05/17 01:15:20;;;;;;;;;;;11.40;99.90;;;;;;5075223;28;19904;-79
2021/05/17 01:17:46;;;;;;;;;;;11.40;99.90;;;;;;5075271;28;19915;-79
2021/05/17 01:20:13;;;;;;;;;;;11.50;99.90;;;;;;5075022;28;19954;-79
2021/05/17 01:22:50;;;;;;;;;;;11.50;99.90;;;;;;5075073;28;19908;-80
2021/05/17 01:25:16;;;;;;;;;;;11.60;99.90;;;;;;5075207;28;19907;-80
2021/05/17 01:27:43;;;;;;;;;;;11.60;99.90;;;;;;5075029;28;19904;-79
2021/05/17 01:30:08;;;;;;;;;;;11.60;99.90;;;;;;5074844;28;19911;-79
2021/05/17 01:32:34;;;;;;;;;;;11.60;99.90;;;;;;5075013;28;19904;-79
2021/05/17 01:35:00;;;;;;;;;;;11.70;99.90;;;;;;5074828;28;19946;-80
2021/05/17 01:37:29;;;;;;;;;;;11.60;99.90;;;;;;5074964;28;19957;-80
2021/05/17 01:39:54;;;;;;;;;;;11.70;99.90;;;;;;5074556;28;20002;-80
2021/05/17 01:42:21;;;;;;;;;;;11.70;99.90;;;;;;5074841;28;20010;-80
2021/05/17 01:44:47;;;;;;;;;;;11.60;99.90;;;;;;5092960;28;19940;-79
2021/05/17 01:47:16;;;;;;;;;;;11.60;99.90;;;;;;5074813;28;19930;-79
2021/05/17 01:49:43;;;;;;;;;;;11.60;99.90;;;;;;5074551;28;20351;-78
2021/05/17 01:52:08;;;;;;;;;;;11.60;99.90;;;;;;5074724;28;19904;-80
2021/05/17 01:54:40;;;;;;;;;;;11.70;99.90;;;;;;5074434;28;19973;-79
2021/05/17 01:57:05;;;;;;;;;;;11.70;99.90;;;;;;5074745;28;20002;-79
2021/05/17 01:59:32;;;;;;;;;;;11.60;99.90;;;;;;5074528;28;20358;-80
2021/05/17 02:01:58;;;;;;;;;;;11.60;99.90;;;;;;5074580;28;20386;-80
2021/05/17 02:04:24;;;;;;;;;;;11.60;99.90;;;;;;5074541;28;19904;-79
2021/05/17 02:06:50;;;;;;;;;;;11.60;99.90;;;;;;5092598;28;19911;-79
2021/05/17 02:09:16;;;;;;;;;;;11.60;99.90;;;;;;5074464;28;19904;-79
2021/05/17 02:11:42;;;;;;;;;;;11.50;99.90;;;;;;5074589;28;19911;-80
2021/05/17 02:14:08;;;;;;;;;;;11.50;99.90;;;;;;5074622;28;19908;-80
2021/05/17 02:16:33;;;;;;;;;;;11.50;99.90;;;;;;5074652;28;19907;-79
2021/05/17 02:18:59;;;;;;;;;;;11.50;99.90;;;;;;5074284;28;20287;-79
2021/05/17 02:21:24;;;;;;;;;;;11.50;99.90;;;;;;5074297;28;19911;-80
2021/05/17 02:23:50;;;;;;;;;;;11.50;99.90;;;;;;5074682;28;20293;-80
2021/05/17 02:26:16;;;;;;;;;;;11.50;99.90;;;;;;5074545;28;19908;-79
2021/05/17 02:28:41;;;;;;;;;;;11.50;99.90;;;;;;5074385;28;19949;-79
2021/05/17 02:31:08;;;;;;;;;;;11.50;99.90;;;;;;5074525;28;20394;-79
2021/05/17 02:33:33;;;;;;;;;;;11.50;99.90;;;;;;5092490;28;19910;-79
2021/05/17 02:35:59;;;;;;;;;;;11.50;99.90;;;;;;5074279;28;19912;-79
2021/05/17 02:38:25;;;;;;;;;;;11.50;99.90;;;;;;5074262;28;20327;-79
2021/05/17 02:40:50;;;;;;;;;;;11.40;99.90;;;;;;5074303;28;19907;-80
2021/05/17 02:43:19;;;;;;;;;;;11.40;99.90;;;;;;5074386;28;19908;-80
2021/05/17 02:45:45;;;;;;;;;;;11.40;99.90;;;;;;5074429;28;19957;-79
2021/05/17 02:48:11;;;;;;;;;;;11.40;99.90;;;;;;5074259;28;19962;-80
2021/05/17 02:50:38;;;;;;;;;;;11.40;99.90;;;;;;5073905;28;19951;-79
2021/05/17 02:53:22;;;;;;;;;;;11.40;99.90;;;;;;5074566;28;19904;-79
2021/05/17 02:55:49;;;;;;;;;;;11.40;99.90;;;;;;5074187;28;19957;-79
2021/05/17 02:58:16;;;;;;;;;;;11.40;99.90;;;;;;5074145;28;19912;-80
2021/05/17 03:00:44;;;;;;;;;;;11.50;99.90;;;;;;5074217;28;19911;-80
2021/05/17 03:03:12;;;;;;;;;;;11.50;99.90;;;;;;5074009;28;19952;-79
2021/05/17 03:05:40;;;;;;;;;;;11.50;99.90;;;;;;5074212;28;20379;-79
2021/05/17 03:08:10;;;;;;;;;;;11.40;99.90;;;;;;5076057;28;20407;-80
2021/05/17 03:10:37;;;;;;;;;;;11.50;99.90;;;;;;5077387;28;19908;-79
2021/05/17 03:13:08;;;;;;;;;;;11.40;99.90;;;;;;5077635;28;19904;-79
2021/05/17 03:15:34;;;;;;;;;;;11.40;99.90;;;;;;5077600;28;19907;-80
2021/05/17 03:17:59;;;;;;;;;;;11.40;99.90;;;;;;5077574;28;19911;-79
2021/05/17 03:20:25;;;;;;;;;;;11.40;99.90;;;;;;5095391;28;19908;-79
2021/05/17 03:22:52;;;;;;;;;;;11.30;99.90;;;;;;5077378;28;19987;-79
2021/05/17 03:25:20;;;;;;;;;;;11.30;99.90;;;;;;5096152;28;20359;-79
2021/05/17 03:27:45;;;;;;;;;;;11.30;99.90;;;;;;5077342;28;20363;-80
2021/05/17 03:30:11;;;;;;;;;;;11.30;99.90;;;;;;5077022;28;19911;-79
2021/05/17 03:32:37;;;;;;;;;;;11.30;99.90;;;;;;5077097;28;19957;-79
2021/05/17 03:35:03;;;;;;;;;;;11.20;99.90;;;;;;5077192;28;19965;-79
2021/05/17 03:37:28;;;;;;;;;;;11.20;99.90;;;;;;5077209;28;19947;-79
2021/05/17 03:39:54;;;;;;;;;;;11.10;99.90;;;;;;5076965;28;19948;-79
2021/05/17 03:42:19;;;;;;;;;;;11.10;99.90;;;;;;5077294;28;19912;-79
2021/05/17 03:44:45;;;;;;;;;;;11.10;99.90;;;;;;5095599;28;20366;-80
2021/05/17 03:47:10;;;;;;;;;;;11.00;99.90;;;;;;5077084;28;19946;-79
2021/05/17 03:49:36;;;;;;;;;;;10.90;99.90;;;;;;5076751;28;19904;-79
2021/05/17 03:52:01;;;;;;;;;;;10.90;99.90;;;;;;5077118;28;19915;-80
2021/05/17 03:54:27;;;;;;;;;;;11.00;99.90;;;;;;5076701;28;20267;-80
2021/05/17 03:56:53;;;;;;;;;;;10.90;99.90;;;;;;5076624;28;20409;-80
2021/05/17 03:59:19;;;;;;;;;;;10.90;99.90;;;;;;5076156;28;19904;-79
2021/05/17 04:01:46;;;;;;;;;;;10.90;99.90;;;;;;5076203;28;19914;-80
2021/05/17 04:04:12;;;;;;;;;;;10.90;99.90;;;;;;5076675;28;19908;-79
2021/05/17 04:06:46;;;;;;;;;;;10.90;99.90;;;;;;5076745;28;19910;-80
2021/05/17 04:14:40;;;;;;;;;;;11.00;99.90;;;;;;5094850;28;19911;-79
2021/05/17 04:17:05;;;;;;;;;;;11.00;99.90;;;;;;5076312;28;19905;-79
2021/05/17 04:19:31;;;;;;;;;;;11.10;99.90;;;;;;5075949;28;19927;-79
2021/05/17 04:21:56;;;;;;;;;;;11.10;99.90;;;;;;5094298;28;19912;-79
2021/05/17 04:24:22;;;;;;;;;;;11.00;99.90;;;;;;5076396;28;19930;-79
2021/05/17 04:26:47;;;;;;;;;;;11.00;99.90;;;;;;5076268;28;19911;-80
2021/05/17 04:29:13;;;;;;;;;;;11.10;99.90;;;;;;5076004;28;20025;-79
2021/05/17 04:31:38;;;;;;;;;;;11.10;99.90;;;;;;5076000;28;20006;-79
2021/05/17 04:34:04;;;;;;;;;;;11.10;99.90;;;;;;5075893;28;19986;-79
2021/05/17 04:36:31;;;;;;;;;;;11.10;99.90;;;;;;5076044;28;19915;-79
2021/05/17 04:38:58;;;;;;;;;;;11.10;99.90;;;;;;5093704;28;20282;-80
2021/05/17 04:41:24;;;;;;;;;;;11.10;99.90;;;;;;5093779;28;19954;-79
2021/05/17 04:43:49;;;;;;;;;;;11.10;99.90;;;;;;5075331;28;20239;-79
2021/05/17 04:46:15;;;;;;;;;;;11.10;99.90;;;;;;5092951;28;19914;-80
2021/05/17 04:48:49;;;;;;;;;;;11.10;99.90;;;;;;5092274;28;20185;-80
2021/05/17 04:51:18;;;;;;;;;;;11.20;99.90;;;;;;5074179;28;19904;-79
2021/05/17 04:53:43;;;;;;;;;;;11.30;99.90;;;;;;5074599;28;19915;-80
2021/05/17 04:56:09;;;;;;;;;;;11.50;99.90;;;;;;5074535;28;19904;-79
2021/05/17 04:58:34;;;;;;;;;;;11.70;99.90;;;;;;5074444;28;19908;-79
2021/05/17 05:01:00;;;;;;;;;;;11.90;99.90;;;;;;5074589;28;19904;-79
2021/05/17 05:03:25;;;;;;;;;;;11.80;99.90;;;;;;5092539;28;19930;-79
2021/05/17 05:05:51;;;;;;;;;;;11.80;99.90;;;;;;5074661;28;19904;-80
2021/05/17 05:08:16;;;;;;;;;;;11.80;99.90;;;;;;5075499;28;19935;-80
2021/05/17 05:10:42;;;;;;;;;;;12.00;99.90;;;;;;5074212;28;20252;-79
2021/05/17 05:13:07;;;;;;;;;;;12.30;99.90;;;;;;5074363;28;19930;-80
2021/05/17 05:15:33;;;;;;;;;;;12.50;99.90;;;;;;5074269;28;19908;-79
2021/05/17 05:17:58;;;;;;;;;;;12.80;99.90;;;;;;5074316;28;20282;-79
2021/05/17 05:20:24;;;;;;;;;;;13.00;99.90;;;;;;5086797;28;19954;-80
2021/05/17 05:22:49;;;;;;;;;;;13.00;99.90;;;;;;5094158;28;20313;-80
2021/05/17 05:25:16;;;;;;;;;;;13.10;99.90;;;;;;5082881;28;19908;-79
2021/05/17 05:27:45;;;;;;;;;;;13.00;99.90;;;;;;5073915;28;19904;-79
2021/05/17 05:32:55;;;;;;;;;;;12.80;99.90;;;;;;5092089;28;19908;-79
2021/05/17 05:35:21;;;;;;;;;;;12.60;99.90;;;;;;5075969;28;19918;-82
2021/05/17 05:37:46;;;;;;;;;;;12.50;99.90;;;;;;5078019;28;19994;-79
2021/05/17 05:40:12;;;;;;;;;;;12.40;99.90;;;;;;5073361;28;19977;-80
2021/05/17 05:42:38;;;;;;;;;;;12.50;99.90;;;;;;5073378;28;19915;-79
2021/05/17 05:45:05;;;;;;;;;;;12.70;99.90;;;;;;5073541;28;19927;-79
2021/05/17 05:47:31;;;;;;;;;;;12.70;99.90;;;;;;5073401;28;20381;-79
2021/05/17 05:49:56;;;;;;;;;;;12.70;99.90;;;;;;5073261;28;19908;-79
2021/05/17 05:52:21;;;;;;;;;;;13.00;99.90;;;;;;5091564;28;19947;-79
2021/05/17 05:54:49;;;;;;;;;;;13.30;99.90;;;;;;5073551;28;19911;-79
2021/05/17 05:57:15;;;;;;;;;;;13.20;99.90;;;;;;5073456;28;19908;-79
2021/05/17 05:59:41;;;;;;;;;;;12.80;99.90;;;;;;5073576;28;19910;-79
2021/05/17 06:02:06;;;;;;;;;;;12.70;99.90;;;;;;5073499;28;19908;-80
2021/05/17 06:04:32;;;;;;;;;;;12.70;99.90;;;;;;5073207;28;19908;-79
2021/05/17 06:06:57;;;;;;;;;;;13.30;99.90;;;;;;5091449;28;20390;-80
2021/05/17 06:09:23;;;;;;;;;;;14.80;99.90;;;;;;5074017;28;19904;-79
2021/05/17 06:11:48;;;;;;;;;;;14.40;99.90;;;;;;5073522;28;19946;-80
2021/05/17 06:14:14;;;;;;;;;;;13.70;99.90;;;;;;5087040;28;20282;-79
2021/05/17 06:16:40;;;;;;;;;;;13.30;99.90;;;;;;5094279;28;20275;-79
2021/05/17 06:19:06;;;;;;;;;;;15.40;99.90;;;;;;5094176;28;19907;-80
2021/05/17 06:21:31;;;;;;;;;;;19.30;99.90;;;;;;5094350;28;19908;-80
2021/05/17 06:23:58;;;;;;;;;;;21.30;99.90;;;;;;5094418;28;19926;-81
2021/05/17 06:26:29;;;;;;;1.27;0.22;;;20.10;99.90;;;;;;5094124;28;20366;-81
2021/05/17 06:28:54;;;;;;;1.05;0.30;;;17.90;99.90;;;;;;5094553;28;19958;-80
2021/05/17 06:31:22;;;;;;;3.60;0.20;;;17.60;99.90;;;;;;5096455;28;20493;-80
2021/05/17 06:33:47;;;;;;;0.80;0.30;;;17.80;99.90;;;;;;5119562;28;20023;-79
2021/05/17 06:36:15;;;;;;;;;;;18.20;99.90;;;;;;5114466;28;20464;-81
2021/05/17 06:38:40;;;;;;;;;;;20.10;99.90;;;;;;5114894;28;19914;-81
2021/05/17 06:41:06;;;;;;;;;;;21.10;99.90;;;;;;5114870;27;20009;-81
2021/05/17 06:43:34;;;;;;;1.60;1.03;;;19.60;99.90;;;;;;5118109;27;19948;-80
2021/05/17 06:46:00;;;;;;;1.08;0.15;;;17.80;99.90;;;;;;5118209;27;20023;-82
2021/05/17 06:48:26;;;;;;;;;;;16.30;99.90;;;;;;5118267;27;20030;-80
2021/05/17 06:50:53;;;;;;;;;;;15.80;99.90;;;;;;5118116;27;20381;-81
2021/05/17 06:53:19;;;;;;;;;;;15.10;99.90;;;;;;5119339;27;20044;-80
2021/05/17 06:55:57;;;;;;;;;;;14.80;99.90;;;;;;5095315;28;19908;-80
2021/05/17 06:58:26;;;;;;;;;;;14.70;99.90;;;;;;5090678;28;20044;-78
2021/05/17 07:00:53;;;;;;;0.65;0.20;;;15.10;99.90;;;;;;5091148;28;19957;-79
2021/05/17 07:03:22;;;;;;;0.65;0.20;;;15.80;99.90;;;;;;5093761;28;20107;-79
2021/05/17 07:05:48;;;;;;;0.00;0.00;;;18.00;99.90;;;;;;5095376;28;20030;-80
2021/05/17 07:13:26;;;;;;;0.05;0.00;;;16.40;99.90;;;;;;5093874;28;20034;-79
2021/05/17 07:15:52;;;;;;;;;;;15.80;99.90;;;;;;5093195;28;20028;-80
2021/05/17 07:18:18;;;;;;;;;;;15.10;99.90;;;;;;5074481;28;19958;-79
2021/05/17 07:25:54;;;;;;;;;;;13.60;99.90;;;;;;5094391;28;19914;-81
2021/05/17 07:28:19;;;;;;;;;;;13.90;99.90;;;;;;5094061;28;19999;-79
2021/05/17 07:30:46;;;;;;;;;;;14.30;99.90;;;;;;5094865;28;19965;-79
2021/05/17 07:33:12;;;;;;;;;;;14.40;99.90;;;;;;5094666;28;19903;-80
2021/05/17 07:35:37;;;;;;;;;;;15.10;99.90;;;;;;5096671;28;20438;-81
2021/05/17 07:38:03;;;;;;;;;;;18.50;99.90;;;;;;5095476;28;20037;-78
2021/05/17 07:40:29;;;;;;;0.57;0.20;;;19.80;99.90;;;;;;5113458;28;19908;-79
2021/05/17 07:42:55;;;;;;;;;;;21.70;99.90;;;;;;5092132;28;19916;-79
2021/05/17 07:45:20;;;;;;;;;;;23.50;99.90;;;;;;5112908;28;19948;-80
2021/05/17 07:47:46;;;;;;;0.63;0.20;;;21.60;99.90;;;;;;5094581;28;20286;-79
2021/05/17 07:50:11;;;;;;;;;;;18.90;99.90;;;;;;5103150;28;20087;-79
2021/05/17 07:52:37;;;;;;;;;;;17.00;99.90;;;;;;5073648;28;19911;-77
2021/05/17 07:55:03;;;;;;;;;;;16.10;99.90;;;;;;5072557;28;20027;-78
2021/05/17 07:57:29;;;;;;;;;;;16.50;99.90;;;;;;5113274;27;24078;-78
2021/05/17 07:59:54;;;;;;;;;;;17.10;99.90;;;;;;5114654;27;20385;-82
2021/05/17 08:02:21;;;;;;;;;;;17.40;99.90;;;;;;5115359;27;20028;-80
2021/05/17 08:04:50;;;;;;;1.60;0.10;;;17.80;99.90;;;;;;5133830;27;19980;-81
2021/05/17 08:07:16;;;;;;;0.00;0.00;;;19.10;99.90;;;;;;5104890;28;20032;-79
2021/05/17 08:09:42;;;;;;;0.47;0.30;;;19.30;99.90;;;;;;5093889;28;20065;-78
2021/05/17 08:12:07;;;;;;;;;;;18.60;99.90;;;;;;5093449;28;20031;-80
2021/05/17 08:14:33;;;;;;;;;;;17.10;99.90;;;;;;5076823;28;19908;-81
2021/05/17 08:17:01;;;;;;;;;;;16.40;99.90;;;;;;5073314;28;20031;-80
2021/05/17 08:19:26;;;;;;;;;;;16.00;99.90;;;;;;5073243;28;20002;-79
2021/05/17 08:21:52;;;;;;;;;;;16.50;99.90;;;;;;5090082;28;19999;-79
2021/05/17 08:24:17;;;;;;;;;;;16.50;99.90;;;;;;5073949;28;20018;-79
2021/05/17 08:26:43;;;;;;;;;;;16.80;99.90;;;;;;5073115;28;20035;-78
2021/05/17 08:29:08;;;;;;;;;;;17.10;99.90;;;;;;5072435;28;20615;-80
2021/05/17 08:31:34;;;;;;;;;;;17.40;99.90;;;;;;5088068;28;20096;-80
2021/05/17 08:34:00;;;;;;;;;;;17.20;99.90;;;;;;5092484;28;24062;-80
2021/05/17 08:36:25;;;;;;;;;;;17.00;99.90;;;;;;5094029;28;19922;-80
2021/05/17 08:38:51;;;;;;;;;;;17.30;99.90;;;;;;5088371;28;19911;-79
2021/05/17 08:41:16;;;;;;;;;;;17.20;99.90;;;;;;5073568;28;20363;-79
2021/05/17 08:43:42;;;;;;;;;;;16.80;99.90;;;;;;5073411;28;19904;-80
2021/05/17 08:46:09;;;;;;;;;;;16.60;99.90;;;;;;5074022;28;20359;-80
2021/05/17 08:48:46;;;;;;;;;;;16.30;99.90;;;;;;5074072;28;19905;-79
2021/05/17 08:51:13;;;;;;;;;;;16.00;99.90;;;;;;5073566;28;20006;-80
2021/05/17 08:53:38;;;;;;;;;;;15.90;99.90;;;;;;5086628;28;20032;-80
2021/05/17 08:56:04;;;;;;;;;;;15.40;99.90;;;;;;5073885;28;20014;-79
2021/05/17 08:58:30;;;;;;;;;;;14.90;99.90;;;;;;5073978;28;19908;-80
2021/05/17 09:00:55;;;;;;;;;;;14.20;99.90;;;;;;5074078;28;19935;-79
2021/05/17 09:03:21;;;;;;;;;;;14.00;99.90;;;;;;5073619;28;19908;-79
2021/05/17 09:05:47;;;;;;;;;;;14.00;99.90;;;;;;5073379;28;20347;-80
2021/05/17 09:08:13;;;;;;;;;;;14.20;99.90;;;;;;5073721;28;20422;-79
2021/05/17 09:10:39;;;;;;;;;;;14.20;99.90;;;;;;5083020;28;19933;-79
2021/05/17 09:13:06;;;;;;;;;;;14.20;99.90;;;;;;5107974;28;19996;-80
2021/05/17 09:15:31;;;;;;;;;;;14.20;99.90;;;;;;5073969;28;19904;-79
2021/05/17 09:17:57;;;;;;;;;;;14.40;99.90;;;;;;5073587;28;19904;-80
2021/05/17 09:20:23;;;;;;;;;;;14.40;99.90;;;;;;5073529;28;19910;-80
2021/05/17 09:23:03;;;;;;;;;;;14.80;99.90;;;;;;5073300;28;19912;-80
2021/05/17 09:25:28;;;;;;;;;;;15.80;99.90;;;;;;5073772;28;19904;-80
2021/05/17 09:27:59;;;;;;;;;;;17.70;99.90;;;;;;5091248;28;19904;-80
2021/05/17 09:30:24;;;;;;;;;;;17.40;99.90;;;;;;5074027;28;19904;-80
2021/05/17 09:32:50;;;;;;;;;;;16.30;99.90;;;;;;5073761;28;19907;-79
2021/05/17 09:35:17;;;;;;;;;;;15.30;99.90;;;;;;5073262;28;19986;-79
2021/05/17 09:37:44;;;;;;;;;;;14.90;99.90;;;;;;5072856;28;20284;-80
2021/05/17 09:40:29;;;;;;;;;;;14.80;99.90;;;;;;5104305;27;20007;-79
2021/05/17 09:43:00;;;;;;;;;;;14.60;99.90;;;;;;5113504;27;19969;-79
2021/05/17 09:45:33;;;;;;;;;;;14.50;99.90;;;;;;5131893;27;19911;-79
2021/05/17 09:47:58;;;;;;;;;;;14.80;99.90;;;;;;5116038;27;19910;-80
2021/05/17 09:50:24;;;;;;;;;;;14.90;99.90;;;;;;5082093;28;20343;-80
2021/05/17 09:52:49;;;;;;;;;;;15.80;99.90;;;;;;5073598;28;19949;-80
2021/05/17 09:55:15;;;;;;;;;;;18.00;99.90;;;;;;5073452;28;19957;-79
2021/05/17 09:57:42;;;;;;;;;;;19.70;99.90;;;;;;5073890;28;19995;-80
2021/05/17 10:00:18;;;;;;;;;;;20.90;99.90;;;;;;5073010;28;19911;-79
2021/05/17 10:02:51;;;;;;;;;;;20.80;99.90;;;;;;5073761;28;19959;-78
2021/05/17 10:05:16;;;;;;;;;;;20.40;99.90;;;;;;5091647;28;19911;-80
2021/05/17 10:07:42;;;;;;;;;;;20.80;99.90;;;;;;5072968;28;20275;-79
2021/05/17 10:10:09;;;;;;;;;;;19.60;99.90;;;;;;5071461;28;20350;-80
2021/05/17 10:12:35;;;;;;;0.55;0.10;;;18.90;99.90;;;;;;5072811;28;19904;-80
2021/05/17 10:15:01;;;;;;;;;;;18.50;99.90;;;;;;5072643;28;20054;-80
2021/05/17 10:17:27;;;;;;;;;;;18.00;99.90;;;;;;5075712;28;19966;-80
2021/05/17 10:19:52;;;;;;;;;;;17.60;99.90;;;;;;5076464;28;20374;-81
2021/05/17 10:22:18;;;;;;;;;;;18.10;99.90;;;;;;5077183;28;19919;-81
2021/05/17 10:24:43;;;;;;;;;;;19.00;99.90;;;;;;5095200;28;20387;-80
2021/05/17 10:27:09;;;;;;;;;;;19.90;99.90;;;;;;5080899;28;19908;-80
2021/05/17 10:29:36;;;;;;;;;;;21.10;99.90;;;;;;5115356;28;20207;-80
2021/05/17 10:32:04;;;;;;;;;;;22.20;99.90;;;;;;5093659;28;20351;-80
2021/05/17 10:34:29;;;;;;;;;;;21.70;99.90;;;;;;5087037;28;19997;-80
2021/05/17 10:36:56;;;;;;;;;;;20.30;99.90;;;;;;5086601;28;19915;-80
2021/05/17 10:39:31;;;;;;;;;;;19.20;99.90;;;;;;5087664;28;19938;-80
2021/05/17 10:42:12;;;;;;;;;;;18.80;99.90;;;;;;5085766;28;20002;-80
2021/05/17 10:47:49;;;;;;;;;;;18.90;99.90;;;;;;5071661;28;20008;-82
2021/05/17 10:50:16;;;;;;;;;;;20.50;99.90;;;;;;5090037;28;20020;-81
2021/05/17 10:52:42;;;;;;;;;;;21.30;99.90;;;;;;5085153;28;20310;-81
2021/05/17 10:55:12;;;;;;;0.95;0.25;;;20.60;99.90;;;;;;5105123;28;19903;-81
2021/05/17 11:00:27;;;;;;;2.28;0.70;;;20.50;99.90;;;;;;5105130;28;19904;-81
2021/05/17 11:03:14;;;;;;;0.15;0.15;;;20.70;99.90;;;;;;5085501;28;20016;-81
2021/05/17 11:05:40;;;;;;;;;;;20.90;99.90;;;;;;5105741;28;20016;-80
2021/05/17 11:08:07;;;;;;;;;;;20.10;99.90;;;;;;5095586;28;19954;-81
2021/05/17 11:10:32;;;;;;;;;;;19.20;99.90;;;;;;5095986;28;19907;-80
2021/05/17 11:13:17;;;;;;;;;;;18.80;99.90;;;;;;5081542;28;19976;-79
2021/05/17 11:15:46;;;;;;;;;;;18.50;99.90;;;;;;5076054;28;19907;-80
2021/05/17 11:18:12;;;;;;;;;;;17.80;99.90;;;;;;5075720;28;19904;-79
2021/05/17 11:20:38;;;;;;;;;;;17.60;99.90;;;;;;5076065;28;19904;-80
2021/05/17 11:23:04;;;;;;;;;;;17.00;99.90;;;;;;5075327;28;19915;-80
2021/05/17 11:25:45;;;;;;;;;;;16.50;99.90;;;;;;5075693;28;20289;-79
2021/05/17 11:28:11;;;;;;;;;;;15.80;99.90;;;;;;5074365;28;19904;-80
2021/05/17 11:30:38;;;;;;;;;;;15.50;99.90;;;;;;5075537;28;19911;-80
2021/05/17 11:33:19;;;;;;;;;;;15.00;99.90;;;;;;5075367;28;20366;-79
2021/05/17 11:36:03;;;;;;;;;;;14.50;99.90;;;;;;5075756;28;19916;-79
2021/05/17 11:38:29;;;;;;;;;;;14.00;99.90;;;;;;5078956;27;19950;-80
2021/05/17 11:40:54;;;;;;;;;;;13.80;99.90;;;;;;5134997;27;19903;-79
2021/05/17 11:43:21;;;;;;;;;;;13.40;99.90;;;;;;5116146;27;19962;-80
2021/05/17 11:45:47;;;;;;;;;;;13.20;99.90;;;;;;5116448;27;19904;-80
2021/05/17 11:48:12;;;;;;;;;;;13.20;99.90;;;;;;5097760;28;19914;-79
2021/05/17 11:50:38;;;;;;;;;;;13.40;99.90;;;;;;5108342;27;19903;-80
2021/05/17 11:53:04;;;;;;;;;;;13.80;99.90;;;;;;5115928;27;19904;-80
2021/05/17 11:55:29;;;;;;;;;;;14.20;99.90;;;;;;5115702;27;20004;-79
2021/05/17 11:57:55;;;;;;;;;;;14.60;99.90;;;;;;5115404;27;19914;-79
2021/05/17 12:00:27;;;;;;;;;;;14.80;99.90;;;;;;5115269;27;20356;-80
2021/05/17 12:02:53;;;;;;;;;;;14.90;99.90;;;;;;5115751;27;19911;-80
2021/05/17 12:05:20;;;;;;;;;;;14.60;99.90;;;;;;5115664;27;19911;-80
2021/05/17 12:07:46;;;;;;;;;;;14.40;99.90;;;;;;5115749;27;19914;-80
2021/05/17 12:10:15;;;;;;;;;;;14.10;99.90;;;;;;5114982;27;19950;-80
2021/05/17 12:12:41;;;;;;;;;;;14.00;99.90;;;;;;5115575;27;20358;-80
2021/05/17 12:15:10;;;;;;;;;;;14.20;99.90;;;;;;5114378;27;19922;-80
2021/05/17 12:17:37;;;;;;;;;;;14.40;99.90;;;;;;5115214;27;20285;-80
2021/05/17 12:20:12;;;;;;;;;;;14.80;99.90;;;;;;5129006;27;20289;-80
2021/05/17 12:22:43;;;;;;;;;;;15.10;99.90;;;;;;5088790;28;19934;-79
2021/05/17 12:25:10;;;;;;;;;;;15.20;99.90;;;;;;5087228;28;20016;-80
2021/05/17 12:27:36;;;;;;;;;;;15.50;99.90;;;;;;5084221;28;20278;-79
2021/05/17 12:30:04;;;;;;;;;;;16.20;99.90;;;;;;5086810;28;20384;-80
2021/05/17 12:32:36;;;;;;;1.55;0.30;;;17.10;99.90;;;;;;5101536;28;24088;-80
2021/05/17 12:35:21;;;;;;;0.63;0.37;;;17.10;99.90;;;;;;5074785;28;20514;-80
2021/05/17 12:37:57;;;;;;;;;;;17.50;99.90;;;;;;5080469;28;20327;-79
2021/05/17 12:40:38;;;;;;;3.88;0.30;;;17.80;99.90;;;;;;5091525;28;24076;-79
2021/05/17 12:43:11;;;;;;;0.20;0.20;;;17.60;99.90;;;;;;5077899;28;20027;-80
2021/05/17 12:45:41;;;;;;;;;;;17.20;99.90;;;;;;5075465;28;20437;-79
2021/05/17 12:48:18;;;;;;;;;;;17.10;99.90;;;;;;5092956;28;20059;-79
2021/05/17 12:50:44;;;;;;;1.05;0.22;;;16.90;99.90;;;;;;5104829;28;20120;-78
2021/05/17 12:53:17;;;;;;;0.45;0.35;;;16.60;99.90;;;;;;5091889;28;20085;-79
2021/05/17 12:55:43;;;;;;;;;;;16.40;99.90;;;;;;5095049;28;20042;-80
2021/05/17 12:58:10;;;;;;;;;;;16.50;99.90;;;;;;5085973;28;20424;-80
2021/05/17 13:00:37;;;;;;;;;;;16.70;99.90;;;;;;5094772;28;20041;-79
2021/05/17 13:03:10;;;;;;;;;;;16.80;99.90;;;;;;5113100;28;20108;-80
2021/05/17 13:05:49;;;;;;;;;;;16.50;99.90;;;;;;5093512;28;20425;-80
2021/05/17 13:08:15;;;;;;;;;;;16.70;99.90;;;;;;5092389;28;20116;-80
2021/05/17 13:11:02;;;;;;;;;;;17.10;99.90;;;;;;5094626;28;20505;-80
2021/05/17 13:13:41;;;;;;;;;;;17.20;99.90;;;;;;5094631;28;20042;-80
2021/05/17 13:16:06;;;;;;;;;;;17.30;99.90;;;;;;5088726;28;20043;-80
2021/05/17 13:18:50;;;;;;;;;;;17.50;99.90;;;;;;5074305;28;20034;-81
2021/05/17 13:21:19;;;;;;;;;;;17.90;99.90;;;;;;5078285;28;20371;-79
2021/05/17 13:24:31;;;;;;;;;;;17.80;99.90;;;;;;5104111;28;20034;-81
2021/05/17 13:30:08;;;;;;;;;;;17.80;99.90;;;;;;5092609;28;19950;-80
2021/05/17 13:32:40;;;;;;;0.10;0.10;;;18.00;99.90;;;;;;5074576;28;20061;-80
2021/05/17 13:35:07;;;;;;;;;;;17.90;99.90;;;;;;5074194;28;20047;-80
2021/05/17 13:37:33;;;;;;;;;;;17.30;99.90;;;;;;5089614;28;20038;-80
2021/05/17 13:39:58;;;;;;;;;;;16.60;99.90;;;;;;5093548;28;19919;-80
2021/05/17 13:42:24;;;;;;;;;;;16.30;99.90;;;;;;5112615;28;19907;-79
2021/05/17 13:44:50;;;;;;;0.20;0.00;;;16.20;99.90;;;;;;5112428;28;19903;-80
2021/05/17 13:47:15;;;;;;;0.40;0.20;;;15.90;99.90;;;;;;5084046;28;20023;-79
2021/05/17 13:49:41;;;;;;;0.10;0.10;;;16.60;99.90;;;;;;5073864;28;20065;-80
2021/05/17 13:52:06;;;;;;;;;;;17.90;99.90;;;;;;5074005;28;20028;-80
2021/05/17 13:54:32;;;;;;;;;;;18.90;99.90;;;;;;5073705;28;20012;-80
2021/05/17 13:56:58;;;;;;;1.60;0.40;;;19.00;99.90;;;;;;5074113;28;20450;-80
2021/05/17 13:59:24;;;;;;;0.43;0.10;;;19.10;99.90;;;;;;5074897;28;20372;-79
2021/05/17 14:01:50;;;;;;;0.10;0.10;;;18.70;99.90;;;;;;5112445;28;20045;-81
2021/05/17 14:04:15;;;;;;;0.65;0.00;;;18.10;99.90;;;;;;5094157;28;20024;-79
2021/05/17 14:06:41;;;;;;;0.35;0.10;;;17.90;99.90;;;;;;5112501;28;20023;-80
2021/05/17 14:09:06;;;;;;;3.03;0.25;;;17.80;99.90;;;;;;5094177;28;20019;-80
2021/05/17 14:11:32;;;;;;;0.70;0.10;;;17.90;99.90;;;;;;5112284;28;20019;-80
2021/05/17 14:13:58;;;;;;;1.83;0.20;;;17.60;99.90;;;;;;5094125;28;20274;-80
2021/05/17 14:16:24;;;;;;;0.75;0.10;;;17.90;99.90;;;;;;5094248;28;20016;-80
2021/05/17 14:18:49;;;;;;;0.47;0.13;;;17.80;99.90;;;;;;5093895;28;20024;-80
2021/05/17 14:21:15;;;;;;;0.47;0.10;;;17.50;99.90;;;;;;5094477;28;20023;-81
2021/05/17 14:23:40;;;;;;;;;;;17.20;99.90;;;;;;5094226;28;20501;-80
2021/05/17 14:26:06;;;;;;;;;;;16.60;99.90;;;;;;5094023;28;19941;-80
2021/05/17 14:28:31;;;;;;;;;;;16.20;99.90;;;;;;5079962;28;19937;-80
2021/05/17 14:30:57;;;;;;;;;;;16.00;99.90;;;;;;5073885;28;19912;-80
2021/05/17 14:33:23;;;;;;;;;;;16.10;99.90;;;;;;5091971;28;19904;-79
2021/05/17 14:35:48;;;;;;;;;;;16.10;99.90;;;;;;5072997;28;19918;-80